sensor_id;sensor_type;location;lat;lon;timestamp;pressure;altitude;pressure_sealevel;temperature;humidity
71976;BME280;68326;52.124;5.424;2024-03-06T00:00:21;101801.75;;;8.76;90.78
71976;BME280;68326;52.124;5.424;2024-03-06T00:02:48;101802.69;;;8.73;90.61
71976;BME280;68326;52.124;5.424;2024-03-06T00:05:15;101806.16;;;8.72;90.80
71976;BME280;68326;52.124;5.424;2024-03-06T00:07:42;101807.06;;;8.71;90.80
71976;BME280;68326;52.124;5.424;2024-03-06T00:10:09;101811.38;;;8.71;90.82
71976;BME280;68326;52.124;5.424;2024-03-06T00:12:35;101820.13;;;8.67;90.01
71976;BME280;68326;52.124;5.424;2024-03-06T00:15:02;101815.88;;;8.64;90.23
71976;BME280;68326;52.124;5.424;2024-03-06T00:17:28;101830.63;;;8.62;90.15
71976;BME280;68326;52.124;5.424;2024-03-06T00:19:55;101822.94;;;8.59;90.16
71976;BME280;68326;52.124;5.424;2024-03-06T00:22:21;101825.56;;;8.57;90.46
71976;BME280;68326;52.124;5.424;2024-03-06T00:24:50;101828.19;;;8.56;90.79
71976;BME280;68326;52.124;5.424;2024-03-06T00:27:16;101828.25;;;8.54;90.71
71976;BME280;68326;52.124;5.424;2024-03-06T00:29:43;101830.84;;;8.54;90.44
71976;BME280;68326;52.124;5.424;2024-03-06T00:32:10;101829.97;;;8.54;90.72
71976;BME280;68326;52.124;5.424;2024-03-06T00:34:36;101834.28;;;8.56;91.07
71976;BME280;68326;52.124;5.424;2024-03-06T00:37:03;101834.16;;;8.60;91.04
71976;BME280;68326;52.124;5.424;2024-03-06T00:39:29;101831.69;;;8.56;90.42
71976;BME280;68326;52.124;5.424;2024-03-06T00:41:56;101835.13;;;8.57;90.34
71976;BME280;68326;52.124;5.424;2024-03-06T00:44:23;101836.03;;;8.54;90.65
71976;BME280;68326;52.124;5.424;2024-03-06T00:46:49;101835.25;;;8.51;90.50
71976;BME280;68326;52.124;5.424;2024-03-06T00:49:16;101840.50;;;8.48;90.67
71976;BME280;68326;52.124;5.424;2024-03-06T00:51:42;101844.84;;;8.47;90.55
71976;BME280;68326;52.124;5.424;2024-03-06T00:54:14;101839.63;;;8.50;90.82
71976;BME280;68326;52.124;5.424;2024-03-06T00:56:41;101842.97;;;8.54;91.21
71976;BME280;68326;52.124;5.424;2024-03-06T00:59:07;101846.34;;;8.57;91.06
71976;BME280;68326;52.124;5.424;2024-03-06T01:01:34;101846.31;;;8.59;91.12
71976;BME280;68326;52.124;5.424;2024-03-06T01:04:01;101848.00;;;8.60;90.97
71976;BME280;68326;52.124;5.424;2024-03-06T01:06:28;101853.28;;;8.57;91.04
71976;BME280;68326;52.124;5.424;2024-03-06T01:08:55;101854.16;;;8.56;90.77
71976;BME280;68326;52.124;5.424;2024-03-06T01:11:24;101861.03;;;8.59;91.51
71976;BME280;68326;52.124;5.424;2024-03-06T01:13:50;101860.94;;;8.62;90.86
71976;BME280;68326;52.124;5.424;2024-03-06T01:16:17;101855.78;;;8.60;91.13
71976;BME280;68326;52.124;5.424;2024-03-06T01:18:43;101859.22;;;8.61;91.17
71976;BME280;68326;52.124;5.424;2024-03-06T01:21:10;101862.59;;;8.64;91.18
71976;BME280;68326;52.124;5.424;2024-03-06T01:23:37;101865.16;;;8.66;90.52
71976;BME280;68326;52.124;5.424;2024-03-06T01:26:03;101863.50;;;8.63;90.68
71976;BME280;68326;52.124;5.424;2024-03-06T01:28:30;101868.72;;;8.62;91.09
71976;BME280;68326;52.124;5.424;2024-03-06T01:30:57;101868.75;;;8.60;91.11
71976;BME280;68326;52.124;5.424;2024-03-06T01:33:25;101872.25;;;8.59;90.71
71976;BME280;68326;52.124;5.424;2024-03-06T01:35:51;101874.06;;;8.55;90.56
71976;BME280;68326;52.124;5.424;2024-03-06T01:38:18;101887.06;;;8.54;90.35
71976;BME280;68326;52.124;5.424;2024-03-06T01:40:44;101888.00;;;8.51;90.61
71976;BME280;68326;52.124;5.424;2024-03-06T01:43:22;101883.50;;;8.58;90.88
71976;BME280;68326;52.124;5.424;2024-03-06T01:45:49;101878.41;;;8.55;90.71
71976;BME280;68326;52.124;5.424;2024-03-06T01:48:20;101873.25;;;8.53;90.45
71976;BME280;68326;52.124;5.424;2024-03-06T01:50:48;101877.75;;;8.47;90.28
71976;BME280;68326;52.124;5.424;2024-03-06T01:53:16;101875.22;;;8.44;90.75
71976;BME280;68326;52.124;5.424;2024-03-06T01:55:44;101878.75;;;8.40;90.90
71976;BME280;68326;52.124;5.424;2024-03-06T01:58:11;101879.66;;;8.37;90.46
71976;BME280;68326;52.124;5.424;2024-03-06T02:00:38;101878.81;;;8.36;90.73
71976;BME280;68326;52.124;5.424;2024-03-06T02:03:04;101880.72;;;8.30;89.83
71976;BME280;68326;52.124;5.424;2024-03-06T02:05:32;101886.06;;;8.22;89.93
71976;BME280;68326;52.124;5.424;2024-03-06T02:07:59;101882.75;;;8.17;89.49
71976;BME280;68326;52.124;5.424;2024-03-06T02:10:27;101886.41;;;8.08;89.03
71976;BME280;68326;52.124;5.424;2024-03-06T02:12:54;101887.38;;;8.03;88.79
71976;BME280;68326;52.124;5.424;2024-03-06T02:15:21;101890.13;;;7.96;88.30
71976;BME280;68326;52.124;5.424;2024-03-06T02:17:48;101896.31;;;7.91;89.05
71976;BME280;68326;52.124;5.424;2024-03-06T02:20:14;101893.81;;;7.86;89.01
71976;BME280;68326;52.124;5.424;2024-03-06T02:22:42;101893.09;;;7.80;89.31
71976;BME280;68326;52.124;5.424;2024-03-06T02:25:09;101890.56;;;7.78;89.41
71976;BME280;68326;52.124;5.424;2024-03-06T02:27:36;101892.34;;;7.74;88.14
71976;BME280;68326;52.124;5.424;2024-03-06T02:30:04;101893.28;;;7.72;88.77
71976;BME280;68326;52.124;5.424;2024-03-06T02:32:30;101888.22;;;7.66;88.83
71976;BME280;68326;52.124;5.424;2024-03-06T02:34:57;101893.59;;;7.57;88.29
71976;BME280;68326;52.124;5.424;2024-03-06T02:37:23;101895.56;;;7.44;88.10
71976;BME280;68326;52.124;5.424;2024-03-06T02:39:51;101895.84;;;7.31;87.99
71976;BME280;68326;52.124;5.424;2024-03-06T02:42:17;101892.66;;;7.17;87.97
71976;BME280;68326;52.124;5.424;2024-03-06T02:44:44;101895.38;;;7.09;88.09
71976;BME280;68326;52.124;5.424;2024-03-06T02:47:10;101896.38;;;7.04;88.21
71976;BME280;68326;52.124;5.424;2024-03-06T02:49:37;101899.03;;;6.99;88.45
71976;BME280;68326;52.124;5.424;2024-03-06T02:52:03;101899.00;;;7.01;89.11
71976;BME280;68326;52.124;5.424;2024-03-06T02:54:30;101903.41;;;6.96;88.50
71976;BME280;68326;52.124;5.424;2024-03-06T02:56:56;101898.34;;;6.89;88.94
71976;BME280;68326;52.124;5.424;2024-03-06T02:59:23;101901.03;;;6.85;88.34
71976;BME280;68326;52.124;5.424;2024-03-06T03:01:50;101897.59;;;6.83;87.89
71976;BME280;68326;52.124;5.424;2024-03-06T03:04:17;101904.56;;;6.79;88.19
71976;BME280;68326;52.124;5.424;2024-03-06T03:06:43;101906.50;;;6.66;87.67
71976;BME280;68326;52.124;5.424;2024-03-06T03:09:10;101902.34;;;6.56;87.90
71976;BME280;68326;52.124;5.424;2024-03-06T03:11:39;101908.44;;;6.52;88.32
71976;BME280;68326;52.124;5.424;2024-03-06T03:14:06;101910.28;;;6.47;88.56
71976;BME280;68326;52.124;5.424;2024-03-06T03:16:33;101906.84;;;6.45;88.79
71976;BME280;68326;52.124;5.424;2024-03-06T03:18:59;101910.38;;;6.41;88.20
71976;BME280;68326;52.124;5.424;2024-03-06T03:21:26;101905.19;;;6.42;88.63
71976;BME280;68326;52.124;5.424;2024-03-06T03:23:52;101907.69;;;6.47;88.74
71976;BME280;68326;52.124;5.424;2024-03-06T03:26:19;101903.34;;;6.49;89.03
71976;BME280;68326;52.124;5.424;2024-03-06T03:28:45;101908.41;;;6.55;90.12
71976;BME280;68326;52.124;5.424;2024-03-06T03:31:12;101910.00;;;6.62;89.15
71976;BME280;68326;52.124;5.424;2024-03-06T03:33:39;101910.00;;;6.64;89.27
71976;BME280;68326;52.124;5.424;2024-03-06T03:36:07;101910.84;;;6.64;89.47
71976;BME280;68326;52.124;5.424;2024-03-06T03:38:35;101910.00;;;6.62;88.92
71976;BME280;68326;52.124;5.424;2024-03-06T03:41:10;101910.94;;;6.58;88.70
71976;BME280;68326;52.124;5.424;2024-03-06T03:43:39;101913.72;;;6.47;88.80
71976;BME280;68326;52.124;5.424;2024-03-06T03:46:06;101911.13;;;6.46;88.52
71976;BME280;68326;52.124;5.424;2024-03-06T03:48:33;101919.78;;;6.46;89.15
71976;BME280;68326;52.124;5.424;2024-03-06T03:51:04;101922.34;;;6.46;89.52
71976;BME280;68326;52.124;5.424;2024-03-06T03:53:34;101921.53;;;6.44;88.45
71976;BME280;68326;52.124;5.424;2024-03-06T03:56:01;101926.78;;;6.40;88.54
71976;BME280;68326;52.124;5.424;2024-03-06T03:58:29;101921.69;;;6.33;88.51
71976;BME280;68326;52.124;5.424;2024-03-06T04:00:56;101930.41;;;6.26;88.53
71976;BME280;68326;52.124;5.424;2024-03-06T04:03:23;101930.47;;;6.20;88.61
71976;BME280;68326;52.124;5.424;2024-03-06T04:05:50;101925.41;;;6.14;87.94
71976;BME280;68326;52.124;5.424;2024-03-06T04:08:17;101929.03;;;6.04;88.10
71976;BME280;68326;52.124;5.424;2024-03-06T04:10:44;101931.72;;;5.95;87.91
71976;BME280;68326;52.124;5.424;2024-03-06T04:13:15;101933.47;;;5.89;87.73
71976;BME280;68326;52.124;5.424;2024-03-06T04:15:42;101934.47;;;5.79;87.39
71976;BME280;68326;52.124;5.424;2024-03-06T04:18:08;101935.44;;;5.72;88.02
71976;BME280;68326;52.124;5.424;2024-03-06T04:20:35;101933.78;;;5.65;87.92
71976;BME280;68326;52.124;5.424;2024-03-06T04:23:01;101941.59;;;5.59;87.95
71976;BME280;68326;52.124;5.424;2024-03-06T04:25:28;101933.97;;;5.51;87.82
71976;BME280;68326;52.124;5.424;2024-03-06T04:30:24;101934.38;;;5.13;90.57
71976;BME280;68326;52.124;5.424;2024-03-06T04:32:51;101936.63;;;5.42;89.56
71976;BME280;68326;52.124;5.424;2024-03-06T04:35:17;101941.75;;;5.46;88.86
71976;BME280;68326;52.124;5.424;2024-03-06T04:37:44;101940.94;;;5.43;88.60
71976;BME280;68326;52.124;5.424;2024-03-06T04:40:11;101941.84;;;5.39;88.52
71976;BME280;68326;52.124;5.424;2024-03-06T04:42:41;101947.00;;;5.39;88.90
71976;BME280;68326;52.124;5.424;2024-03-06T04:45:12;101951.22;;;5.46;88.60
71976;BME280;68326;52.124;5.424;2024-03-06T04:47:39;101956.50;;;5.35;87.92
71976;BME280;68326;52.124;5.424;2024-03-06T04:50:09;101958.28;;;5.31;88.78
71976;BME280;68326;52.124;5.424;2024-03-06T04:52:40;101960.88;;;5.28;88.23
71976;BME280;68326;52.124;5.424;2024-03-06T04:55:08;101963.47;;;5.27;88.86
71976;BME280;68326;52.124;5.424;2024-03-06T04:57:39;101964.28;;;5.34;88.83
71976;BME280;68326;52.124;5.424;2024-03-06T05:00:10;101966.03;;;5.30;88.59
71976;BME280;68326;52.124;5.424;2024-03-06T05:02:37;101970.22;;;5.39;89.71
71976;BME280;68326;52.124;5.424;2024-03-06T05:05:22;101969.22;;;5.52;89.71
71976;BME280;68326;52.124;5.424;2024-03-06T05:08:06;101976.88;;;5.61;89.50
71976;BME280;68326;52.124;5.424;2024-03-06T05:10:50;101978.63;;;5.59;89.25
71976;BME280;68326;52.124;5.424;2024-03-06T05:13:34;101976.06;;;5.55;89.46
71976;BME280;68326;52.124;5.424;2024-03-06T05:16:18;101977.84;;;5.51;89.42
71976;BME280;68326;52.124;5.424;2024-03-06T05:19:02;101977.03;;;5.46;88.70
71976;BME280;68326;52.124;5.424;2024-03-06T05:21:46;101978.75;;;5.45;88.85
71976;BME280;68326;52.124;5.424;2024-03-06T05:24:30;101995.06;;;5.50;89.58
71976;BME280;68326;52.124;5.424;2024-03-06T05:27:14;101995.88;;;5.54;89.20
71976;BME280;68326;52.124;5.424;2024-03-06T05:30:00;102003.72;;;5.46;88.82
71976;BME280;68326;52.124;5.424;2024-03-06T05:32:44;102007.25;;;5.38;88.50
71976;BME280;68326;52.124;5.424;2024-03-06T05:35:28;102008.16;;;5.29;88.53
71976;BME280;68326;52.124;5.424;2024-03-06T05:38:13;102009.94;;;5.24;88.92
71976;BME280;68326;52.124;5.424;2024-03-06T05:40:56;102015.16;;;5.21;88.49
71976;BME280;68326;52.124;5.424;2024-03-06T05:43:40;102014.31;;;5.14;88.68
71976;BME280;68326;52.124;5.424;2024-03-06T05:46:24;102012.63;;;5.11;88.90
71976;BME280;68326;52.124;5.424;2024-03-06T05:49:09;102018.69;;;5.10;88.74
71976;BME280;68326;52.124;5.424;2024-03-06T05:51:54;102021.31;;;5.06;89.10
71976;BME280;68326;52.124;5.424;2024-03-06T05:54:38;102023.94;;;5.00;88.71
71976;BME280;68326;52.124;5.424;2024-03-06T05:57:22;102021.31;;;5.01;89.15
71976;BME280;68326;52.124;5.424;2024-03-06T06:00:07;102036.69;;;5.14;89.54
71976;BME280;68326;52.124;5.424;2024-03-06T06:02:37;102031.50;;;5.18;89.69
71976;BME280;68326;52.124;5.424;2024-03-06T06:05:05;102037.50;;;5.23;89.30
71976;BME280;68326;52.124;5.424;2024-03-06T06:07:49;102047.81;;;5.22;89.00
71976;BME280;68326;52.124;5.424;2024-03-06T06:10:16;102054.75;;;5.17;89.46
71976;BME280;68326;52.124;5.424;2024-03-06T06:12:47;102053.88;;;5.16;89.18
71976;BME280;68326;52.124;5.424;2024-03-06T06:15:13;102058.13;;;5.22;89.59
71976;BME280;68326;52.124;5.424;2024-03-06T06:17:40;102064.94;;;5.32;89.82
71976;BME280;68326;52.124;5.424;2024-03-06T06:20:10;102063.19;;;5.32;89.44
71976;BME280;68326;52.124;5.424;2024-03-06T06:22:41;102066.69;;;5.28;89.95
71976;BME280;68326;52.124;5.424;2024-03-06T06:25:08;102065.81;;;5.29;90.32
71976;BME280;68326;52.124;5.424;2024-03-06T06:27:36;102064.06;;;5.33;90.04
71976;BME280;68326;52.124;5.424;2024-03-06T06:30:03;102074.38;;;5.35;89.78
71976;BME280;68326;52.124;5.424;2024-03-06T06:32:32;102073.53;;;5.31;90.05
71976;BME280;68326;52.124;5.424;2024-03-06T06:34:59;102072.69;;;5.30;90.40
71976;BME280;68326;52.124;5.424;2024-03-06T06:37:26;102081.28;;;5.32;90.06
71976;BME280;68326;52.124;5.424;2024-03-06T06:39:52;102089.00;;;5.31;90.58
71976;BME280;68326;52.124;5.424;2024-03-06T06:42:19;102086.34;;;5.45;91.00
71976;BME280;68326;52.124;5.424;2024-03-06T06:44:45;102096.50;;;5.59;91.15
71976;BME280;68326;52.124;5.424;2024-03-06T06:47:12;102099.09;;;5.63;90.47
71976;BME280;68326;52.124;5.424;2024-03-06T06:49:38;102110.25;;;5.62;90.90
71976;BME280;68326;52.124;5.424;2024-03-06T06:52:05;102111.09;;;5.66;90.94
71976;BME280;68326;52.124;5.424;2024-03-06T06:54:31;102114.47;;;5.71;90.46
71976;BME280;68326;52.124;5.424;2024-03-06T06:56:58;102121.34;;;5.75;91.16
71976;BME280;68326;52.124;5.424;2024-03-06T06:59:24;102115.31;;;5.76;90.73
71976;BME280;68326;52.124;5.424;2024-03-06T07:01:51;102127.28;;;5.82;91.06
71976;BME280;68326;52.124;5.424;2024-03-06T07:04:18;102125.59;;;5.82;91.17
71976;BME280;68326;52.124;5.424;2024-03-06T07:06:46;102132.41;;;5.86;90.73
71976;BME280;68326;52.124;5.424;2024-03-06T07:09:13;102137.63;;;5.82;90.89
71976;BME280;68326;52.124;5.424;2024-03-06T07:11:42;102141.94;;;5.81;91.47
71976;BME280;68326;52.124;5.424;2024-03-06T07:14:12;102142.78;;;5.82;91.46
71976;BME280;68326;52.124;5.424;2024-03-06T07:16:45;102146.97;;;5.97;91.78
71976;BME280;68326;52.124;5.424;2024-03-06T07:19:12;102150.44;;;5.96;91.23
71976;BME280;68326;52.124;5.424;2024-03-06T07:21:39;102154.84;;;5.81;90.22
71976;BME280;68326;52.124;5.424;2024-03-06T07:24:05;102154.91;;;5.78;91.69
71976;BME280;68326;52.124;5.424;2024-03-06T07:26:33;102153.09;;;5.85;91.24
71976;BME280;68326;52.124;5.424;2024-03-06T07:29:00;102151.38;;;5.85;91.66
71976;BME280;68326;52.124;5.424;2024-03-06T07:31:27;102158.28;;;5.83;91.38
71976;BME280;68326;52.124;5.424;2024-03-06T07:33:53;102154.84;;;5.83;91.92
71976;BME280;68326;52.124;5.424;2024-03-06T07:36:20;102157.31;;;5.93;92.34
71976;BME280;68326;52.124;5.424;2024-03-06T07:38:47;102159.94;;;5.95;92.29
71976;BME280;68326;52.124;5.424;2024-03-06T07:41:14;102165.84;;;6.06;92.88
71976;BME280;68326;52.124;5.424;2024-03-06T07:43:40;102160.56;;;6.17;92.58
71976;BME280;68326;52.124;5.424;2024-03-06T07:46:07;102169.97;;;6.23;92.76
71976;BME280;68326;52.124;5.424;2024-03-06T07:48:37;102175.13;;;6.24;91.97
71976;BME280;68326;52.124;5.424;2024-03-06T07:51:04;102177.66;;;6.29;92.56
71976;BME280;68326;52.124;5.424;2024-03-06T07:53:31;102174.22;;;6.28;92.37
71976;BME280;68326;52.124;5.424;2024-03-06T07:55:57;102177.63;;;6.30;92.82
71976;BME280;68326;52.124;5.424;2024-03-06T07:58:24;102177.69;;;6.27;92.86
71976;BME280;68326;52.124;5.424;2024-03-06T08:00:51;102182.84;;;6.27;92.54
71976;BME280;68326;52.124;5.424;2024-03-06T08:03:22;102194.09;;;6.23;92.94
71976;BME280;68326;52.124;5.424;2024-03-06T08:05:52;102197.47;;;6.31;93.74
71976;BME280;68326;52.124;5.424;2024-03-06T08:08:20;102201.69;;;6.37;93.39
71976;BME280;68326;52.124;5.424;2024-03-06T08:10:47;102199.09;;;6.37;93.44
71976;BME280;68326;52.124;5.424;2024-03-06T08:13:14;102201.63;;;6.43;93.46
71976;BME280;68326;52.124;5.424;2024-03-06T08:15:40;102197.19;;;6.55;94.10
71976;BME280;68326;52.124;5.424;2024-03-06T08:18:08;102196.19;;;6.65;94.05
71976;BME280;68326;52.124;5.424;2024-03-06T08:20:35;102190.94;;;6.74;94.30
71976;BME280;68326;52.124;5.424;2024-03-06T08:23:02;102199.44;;;6.82;94.67
71976;BME280;68326;52.124;5.424;2024-03-06T08:25:29;102201.06;;;6.89;94.85
71976;BME280;68326;52.124;5.424;2024-03-06T08:27:59;102202.69;;;6.97;95.57
71976;BME280;68326;52.124;5.424;2024-03-06T08:30:25;102207.78;;;7.04;95.32
71976;BME280;68326;52.124;5.424;2024-03-06T08:32:51;102212.06;;;7.05;95.39
71976;BME280;68326;52.124;5.424;2024-03-06T08:35:18;102217.97;;;7.17;95.51
71976;BME280;68326;52.124;5.424;2024-03-06T08:37:48;102222.25;;;7.19;95.82
71976;BME280;68326;52.124;5.424;2024-03-06T08:40:15;102223.00;;;7.26;95.33
71976;BME280;68326;52.124;5.424;2024-03-06T08:42:44;102228.19;;;7.26;95.00
71976;BME280;68326;52.124;5.424;2024-03-06T08:45:11;102233.34;;;7.27;95.16
71976;BME280;68326;52.124;5.424;2024-03-06T08:47:38;102236.69;;;7.34;95.28
71976;BME280;68326;52.124;5.424;2024-03-06T08:50:05;102241.72;;;7.43;95.39
71976;BME280;68326;52.124;5.424;2024-03-06T08:52:31;102241.66;;;7.49;95.26
71976;BME280;68326;52.124;5.424;2024-03-06T08:54:58;102246.81;;;7.51;95.49
71976;BME280;68326;52.124;5.424;2024-03-06T08:57:24;102248.31;;;7.66;96.28
71976;BME280;68326;52.124;5.424;2024-03-06T08:59:54;102253.41;;;7.72;96.10
71976;BME280;68326;52.124;5.424;2024-03-06T09:02:21;102253.31;;;7.76;96.13
71976;BME280;68326;52.124;5.424;2024-03-06T09:04:48;102254.13;;;7.80;95.38
71976;BME280;68326;52.124;5.424;2024-03-06T09:07:15;102260.16;;;7.81;96.37
71976;BME280;68326;52.124;5.424;2024-03-06T09:09:41;102263.59;;;7.84;95.78
71976;BME280;68326;52.124;5.424;2024-03-06T09:12:09;102266.94;;;7.89;96.61
71976;BME280;68326;52.124;5.424;2024-03-06T09:14:41;102266.69;;;8.03;96.83
71976;BME280;68326;52.124;5.424;2024-03-06T09:17:07;102272.56;;;8.14;97.01
71976;BME280;68326;52.124;5.424;2024-03-06T09:19:35;102271.53;;;8.25;96.26
71976;BME280;68326;52.124;5.424;2024-03-06T09:22:04;102267.22;;;8.24;95.82
71976;BME280;68326;52.124;5.424;2024-03-06T09:24:31;102270.75;;;8.20;95.71
71976;BME280;68326;52.124;5.424;2024-03-06T09:26:57;102285.28;;;8.28;96.83
71976;BME280;68326;52.124;5.424;2024-03-06T09:29:24;102281.81;;;8.29;96.21
71976;BME280;68326;52.124;5.424;2024-03-06T09:31:51;102283.53;;;8.30;96.14
71976;BME280;68326;52.124;5.424;2024-03-06T09:34:17;102296.38;;;8.38;96.56
71976;BME280;68326;52.124;5.424;2024-03-06T09:36:48;102299.81;;;8.38;95.75
71976;BME280;68326;52.124;5.424;2024-03-06T09:39:16;102303.41;;;8.30;95.39
71976;BME280;68326;52.124;5.424;2024-03-06T09:41:44;102304.25;;;8.33;96.53
71976;BME280;68326;52.124;5.424;2024-03-06T09:44:11;102307.53;;;8.45;95.86
71976;BME280;68326;52.124;5.424;2024-03-06T09:46:38;102304.00;;;8.47;95.88
71976;BME280;68326;52.124;5.424;2024-03-06T09:49:07;102307.34;;;8.54;95.25
71976;BME280;68326;52.124;5.424;2024-03-06T09:51:34;102311.66;;;8.56;96.04
71976;BME280;68326;52.124;5.424;2024-03-06T09:54:01;102308.13;;;8.59;95.80
71976;BME280;68326;52.124;5.424;2024-03-06T09:56:29;102307.09;;;8.69;95.70
71976;BME280;68326;52.124;5.424;2024-03-06T09:58:55;102316.44;;;8.78;94.65
71976;BME280;68326;52.124;5.424;2024-03-06T10:01:23;102320.59;;;8.87;95.13
71976;BME280;68326;52.124;5.424;2024-03-06T10:03:50;102316.22;;;8.89;94.23
71976;BME280;68326;52.124;5.424;2024-03-06T10:06:17;102319.53;;;8.97;94.86
71976;BME280;68326;52.124;5.424;2024-03-06T10:08:44;102325.38;;;9.07;94.32
71976;BME280;68326;52.124;5.424;2024-03-06T10:11:12;102318.41;;;9.09;94.63
71976;BME280;68326;52.124;5.424;2024-03-06T10:13:39;102325.94;;;9.23;94.64
71976;BME280;68326;52.124;5.424;2024-03-06T10:16:06;102322.16;;;9.37;94.63
71976;BME280;68326;52.124;5.424;2024-03-06T10:18:37;102326.22;;;9.49;94.37
71976;BME280;68326;52.124;5.424;2024-03-06T10:21:06;102328.47;;;9.65;94.21
71976;BME280;68326;52.124;5.424;2024-03-06T10:23:34;102326.75;;;9.65;92.69
71976;BME280;68326;52.124;5.424;2024-03-06T10:26:01;102339.50;;;9.76;92.98
71976;BME280;68326;52.124;5.424;2024-03-06T10:28:28;102337.63;;;9.81;92.35
71976;BME280;68326;52.124;5.424;2024-03-06T10:31:03;102333.91;;;9.93;92.48
71976;BME280;68326;52.124;5.424;2024-03-06T10:33:31;102336.25;;;10.02;91.70
71976;BME280;68326;52.124;5.424;2024-03-06T10:35:57;102332.97;;;9.95;89.62
71976;BME280;68326;52.124;5.424;2024-03-06T10:38:32;102336.50;;;9.93;90.84
71976;BME280;68326;52.124;5.424;2024-03-06T10:41:02;102344.09;;;10.00;90.73
71976;BME280;68326;52.124;5.424;2024-03-06T10:43:31;102349.03;;;10.11;90.53
71976;BME280;68326;52.124;5.424;2024-03-06T10:46:06;102348.06;;;10.15;90.87
71976;BME280;68326;52.124;5.424;2024-03-06T10:48:33;102345.69;;;10.08;90.17
71976;BME280;68326;52.124;5.424;2024-03-06T10:51:02;102350.66;;;10.17;91.19
71976;BME280;68326;52.124;5.424;2024-03-06T10:53:31;102349.38;;;10.69;90.38
71976;BME280;68326;52.124;5.424;2024-03-06T10:55:58;102353.06;;;10.60;88.77
71976;BME280;68326;52.124;5.424;2024-03-06T10:58:25;102354.34;;;10.44;86.89
71976;BME280;68326;52.124;5.424;2024-03-06T11:00:52;102352.19;;;10.60;89.09
71976;BME280;68326;52.124;5.424;2024-03-06T11:03:21;102347.66;;;10.99;87.63
71976;BME280;68326;52.124;5.424;2024-03-06T11:05:49;102347.56;;;11.34;85.47
71976;BME280;68326;52.124;5.424;2024-03-06T11:08:19;102351.31;;;11.23;84.14
71976;BME280;68326;52.124;5.424;2024-03-06T11:10:46;102354.53;;;11.33;85.48
71976;BME280;68326;52.124;5.424;2024-03-06T11:13:23;102353.00;;;11.84;86.46
71976;BME280;68326;52.124;5.424;2024-03-06T11:15:53;102355.72;;;12.34;84.69
71976;BME280;68326;52.124;5.424;2024-03-06T11:23:35;102355.59;;;12.39;78.88
71976;BME280;68326;52.124;5.424;2024-03-06T11:26:21;102361.69;;;11.83;79.07
71976;BME280;68326;52.124;5.424;2024-03-06T11:28:48;102362.53;;;11.83;82.23
71976;BME280;68326;52.124;5.424;2024-03-06T11:31:18;102360.06;;;12.35;83.96
71976;BME280;68326;52.124;5.424;2024-03-06T11:33:47;102360.00;;;12.62;81.65
71976;BME280;68326;52.124;5.424;2024-03-06T11:36:27;102361.22;;;12.27;79.81
71976;BME280;68326;52.124;5.424;2024-03-06T11:41:25;102369.44;;;12.14;81.05
71976;BME280;68326;52.124;5.424;2024-03-06T11:43:53;102358.53;;;12.80;79.09
71976;BME280;68326;52.124;5.424;2024-03-06T11:46:23;102366.38;;;12.80;77.45
71976;BME280;68326;52.124;5.424;2024-03-06T11:48:54;102362.53;;;13.14;81.06
71976;BME280;68326;52.124;5.424;2024-03-06T11:51:24;102364.97;;;13.65;78.08
71976;BME280;68326;52.124;5.424;2024-03-06T11:53:51;102367.06;;;13.79;75.12
71976;BME280;68326;52.124;5.424;2024-03-06T11:56:19;102366.97;;;13.81;76.60
71976;BME280;68326;52.124;5.424;2024-03-06T11:58:49;102371.69;;;14.37;75.75
71976;BME280;68326;52.124;5.424;2024-03-06T12:01:16;102370.56;;;14.65;71.20
71976;BME280;68326;52.124;5.424;2024-03-06T12:03:44;102367.56;;;14.52;71.90
71976;BME280;68326;52.124;5.424;2024-03-06T12:06:13;102365.81;;;14.53;73.30
71976;BME280;68326;52.124;5.424;2024-03-06T12:08:41;102374.06;;;14.43;71.71
71976;BME280;68326;52.124;5.424;2024-03-06T12:11:07;102372.00;;;14.30;72.93
71976;BME280;68326;52.124;5.424;2024-03-06T12:13:34;102374.41;;;14.56;72.68
71976;BME280;68326;52.124;5.424;2024-03-06T12:16:08;102371.03;;;14.94;71.43
71976;BME280;68326;52.124;5.424;2024-03-06T12:18:34;102375.38;;;14.95;71.41
71976;BME280;68326;52.124;5.424;2024-03-06T12:21:02;102376.38;;;14.92;69.26
71976;BME280;68326;52.124;5.424;2024-03-06T12:23:29;102374.13;;;15.22;68.64
71976;BME280;68326;52.124;5.424;2024-03-06T12:26:09;102372.59;;;15.37;66.28
71976;BME280;68326;52.124;5.424;2024-03-06T12:28:38;102370.19;;;15.33;66.07
71976;BME280;68326;52.124;5.424;2024-03-06T12:31:06;102368.75;;;15.44;66.66
71976;BME280;68326;52.124;5.424;2024-03-06T12:33:34;102369.69;;;15.62;65.10
71976;BME280;68326;52.124;5.424;2024-03-06T12:36:07;102371.03;;;15.52;65.45
71976;BME280;68326;52.124;5.424;2024-03-06T12:38:37;102370.34;;;15.66;65.34
71976;BME280;68326;52.124;5.424;2024-03-06T12:41:04;102371.13;;;15.68;63.49
71976;BME280;68326;52.124;5.424;2024-03-06T12:43:32;102371.41;;;16.00;65.32
71976;BME280;68326;52.124;5.424;2024-03-06T12:46:00;102369.66;;;16.35;62.59
71976;BME280;68326;52.124;5.424;2024-03-06T12:48:30;102363.25;;;16.58;61.78
71976;BME280;68326;52.124;5.424;2024-03-06T12:50:57;102367.34;;;16.46;60.54
71976;BME280;68326;52.124;5.424;2024-03-06T12:53:31;102369.44;;;16.22;61.58
71976;BME280;68326;52.124;5.424;2024-03-06T12:55:59;102360.16;;;16.33;60.48
71976;BME280;68326;52.124;5.424;2024-03-06T12:58:26;102366.06;;;16.01;58.23
71976;BME280;68326;52.124;5.424;2024-03-06T13:00:52;102360.09;;;15.80;60.04
71976;BME280;68326;52.124;5.424;2024-03-06T13:03:20;102360.81;;;15.84;59.69
71976;BME280;68326;52.124;5.424;2024-03-06T13:05:47;102352.50;;;15.36;59.76
71976;BME280;68326;52.124;5.424;2024-03-06T13:08:13;102351.50;;;15.01;59.26
71976;BME280;68326;52.124;5.424;2024-03-06T13:10:41;102361.66;;;14.69;62.13
71976;BME280;68326;52.124;5.424;2024-03-06T13:13:08;102359.94;;;14.68;62.33
71976;BME280;68326;52.124;5.424;2024-03-06T13:15:34;102362.59;;;14.87;61.68